Time;durP1;ratioP1;P1;durP2;ratioP2;P2;SDS_P1;SDS_P2;PMS_P1;PMS_P2;Temp;Humidity;BMP_temperature;BMP_pressure;BME280_temperature;BME280_humidity;BME280_pressure;Samples;Min_cycle;Max_cycle;Signal;HPM_P1;HPM_P2
2023/05/05 00:00:12;;;;;;;7.65;6.30;;;;;;;16.18;61.72;99459.13;331630;29;5827;-71
2023/05/05 00:00:24;;;;;;;7.43;5.78;;;;;;;16.18;61.75;99455.69;334931;29;4692;-69
2023/05/05 00:00:36;;;;;;;6.50;5.18;;;;;;;16.20;61.63;99455.56;330008;29;17773;-69
2023/05/05 00:00:50;;;;;;;5.53;4.93;;;;;;;16.19;61.91;99454.72;332617;29;4811;-69
2023/05/05 00:01:02;;;;;;;6.07;4.90;;;;;;;16.20;61.64;99452.94;329294;29;18328;-70
2023/05/05 00:01:14;;;;;;;6.78;5.00;;;;;;;16.19;61.83;99462.59;331618;29;5070;-70
2023/05/05 00:01:27;;;;;;;6.43;4.93;;;;;;;16.18;61.71;99456.50;329478;29;17875;-70
2023/05/05 00:01:41;;;;;;;5.82;4.88;;;;;;;16.17;61.74;99461.84;330436;29;18124;-71
2023/05/05 00:01:53;;;;;;;5.95;4.90;;;;;;;16.16;61.79;99454.91;332448;29;4734;-69
2023/05/05 00:02:06;;;;;;;6.55;4.78;;;;;;;16.16;61.84;99457.53;330774;29;17975;-70
2023/05/05 00:02:18;;;;;;;5.88;4.47;;;;;;;16.15;61.81;99458.47;331986;29;4516;-69
2023/05/05 00:02:30;;;;;;;6.97;4.57;;;;;;;16.16;61.80;99460.16;330250;29;16386;-70
2023/05/05 00:02:42;;;;;;;8.10;4.60;;;;;;;16.15;62.05;99456.69;332434;29;4640;-69
2023/05/05 00:02:54;;;;;;;8.02;4.68;;;;;;;16.16;62.10;99454.91;333278;29;4561;-70
2023/05/05 00:03:09;;;;;;;6.18;4.72;;;;;;;16.17;62.12;99453.97;332638;29;18055;-69
2023/05/05 00:03:23;;;;;;;6.18;4.70;;;;;;;16.17;61.73;99459.22;331167;29;18790;-69
2023/05/05 00:03:36;;;;;;;5.85;4.68;;;;;;;16.18;61.94;99456.50;332009;29;18111;-69
2023/05/05 00:03:48;;;;;;;5.55;4.75;;;;;;;16.18;61.80;99461.75;335400;29;5528;-69
2023/05/05 00:04:00;;;;;;;6.55;4.68;;;;;;;16.18;61.74;99453.06;333766;28;15955;-71
2023/05/05 00:04:12;;;;;;;6.53;4.55;;;;;;;16.16;61.58;99452.31;333138;29;4548;-69
2023/05/05 00:04:24;;;;;;;6.68;4.60;;;;;;;16.17;61.31;99456.59;332255;29;4568;-70
2023/05/05 00:04:36;;;;;;;5.80;4.65;;;;;;;16.16;61.33;99457.53;331063;29;18095;-69
2023/05/05 00:04:48;;;;;;;6.90;4.45;;;;;;;16.17;61.51;99456.59;332077;29;4648;-70
2023/05/05 00:05:00;;;;;;;7.40;4.45;;;;;;;16.16;61.38;99460.16;331143;29;18385;-70
2023/05/05 00:05:13;;;;;;;6.85;4.53;;;;;;;16.10;61.48;99456.13;333394;29;4493;-69
2023/05/05 00:05:25;;;;;;;6.53;4.82;;;;;;;16.10;61.39;99456.13;329280;29;19071;-69
2023/05/05 00:05:37;;;;;;;6.57;4.65;;;;;;;16.09;61.54;99454.41;330671;29;5156;-69
2023/05/05 00:05:51;;;;;;;6.93;4.80;;;;;;;16.09;61.15;99454.41;332643;29;4546;-69
2023/05/05 00:06:04;;;;;;;7.57;4.88;;;;;;;16.10;61.48;99460.53;329939;29;19347;-70
2023/05/05 00:06:16;;;;;;;7.55;4.85;;;;;;;16.10;61.57;99455.28;328343;29;5144;-69
2023/05/05 00:06:28;;;;;;;7.28;4.78;;;;;;;16.11;61.65;99454.34;331088;29;5106;-70
2023/05/05 00:06:41;;;;;;;5.50;4.70;;;;;;;16.10;61.78;99457.91;327819;29;18313;-71
2023/05/05 00:06:53;;;;;;;5.82;4.93;;;;;;;16.09;61.82;99456.19;332636;29;4686;-69
2023/05/05 00:07:05;;;;;;;6.53;5.20;;;;;;;16.08;62.02;99451.91;329848;29;8766;-71
2023/05/05 00:07:17;;;;;;;6.80;4.90;;;;;;;16.07;61.99;99455.44;332823;29;18511;-69
2023/05/05 00:07:29;;;;;;;6.90;4.97;;;;;;;16.06;62.46;99456.41;334441;29;5465;-69
2023/05/05 00:07:41;;;;;;;6.20;5.03;;;;;;;16.06;62.38;99451.16;332535;29;18054;-70
2023/05/05 00:07:53;;;;;;;6.18;4.90;;;;;;;16.04;62.59;99448.63;335485;29;5506;-69
2023/05/05 00:08:08;;;;;;;6.32;4.75;;;;;;;16.06;62.86;99451.16;332045;29;18190;-69
2023/05/05 00:08:21;;;;;;;6.80;5.07;;;;;;;16.07;62.81;99455.44;333576;29;15008;-71
2023/05/05 00:08:33;;;;;;;7.85;5.30;;;;;;;16.08;62.65;99452.75;335676;29;5362;-69
2023/05/05 00:08:46;;;;;;;7.30;5.10;;;;;;;16.08;62.80;99454.53;332271;29;15615;-70
2023/05/05 00:08:58;;;;;;;7.97;4.90;;;;;;;16.07;63.15;99444.97;332836;29;5515;-70
2023/05/05 00:09:10;;;;;;;8.07;5.00;;;;;;;16.07;62.76;99448.41;330234;29;5314;-71
2023/05/05 00:09:22;;;;;;;8.10;5.35;;;;;;;16.07;63.17;99447.59;331657;29;19128;-69
2023/05/05 00:09:34;;;;;;;6.82;5.50;;;;;;;16.07;62.87;99450.19;333043;29;5436;-70
2023/05/05 00:09:46;;;;;;;6.63;5.25;;;;;;;16.04;62.94;99450.41;328988;29;18174;-69
2023/05/05 00:09:58;;;;;;;6.13;5.00;;;;;;;16.01;63.02;99450.56;331201;29;4760;-70
2023/05/05 00:10:10;;;;;;;6.13;5.10;;;;;;;16.00;63.12;99449.72;329927;29;5566;-71
2023/05/05 00:10:22;;;;;;;6.65;5.18;;;;;;;16.03;62.84;99448.69;329101;29;14362;-69
2023/05/05 00:10:35;;;;;;;6.18;4.97;;;;;;;16.05;62.78;99452.06;332577;29;4521;-69
2023/05/05 00:10:51;;;;;;;5.57;4.72;;;;;;;16.05;62.97;99439.78;327978;29;17734;-70
2023/05/05 00:11:04;;;;;;;6.80;4.75;;;;;;;16.08;63.07;99444.03;327432;29;18218;-69
2023/05/05 00:11:16;;;;;;;8.13;4.90;;;;;;;16.08;63.17;99451.91;330670;29;18121;-69
2023/05/05 00:11:27;;;;;;;8.10;4.90;;;;;;;16.09;63.33;99449.16;334544;29;4546;-69
2023/05/05 00:11:40;;;;;;;6.88;4.90;;;;;;;16.10;63.57;99450.03;333167;29;4681;-69
2023/05/05 00:11:52;;;;;;;7.10;4.97;;;;;;;16.10;63.55;99450.03;329763;29;18691;-68
2023/05/05 00:12:04;;;;;;;7.43;5.03;;;;;;;16.08;63.74;99454.53;331866;29;4752;-69
2023/05/05 00:12:16;;;;;;;8.05;5.00;;;;;;;16.09;63.57;99451.78;327078;29;18763;-69
2023/05/05 00:12:29;;;;;;;8.23;5.18;;;;;;;16.07;63.96;99445.78;328085;29;4582;-70
2023/05/05 00:12:41;;;;;;;7.93;5.15;;;;;;;16.09;63.57;99448.34;326374;29;18456;-71
2023/05/05 00:12:53;;;;;;;7.72;5.20;;;;;;;16.10;63.53;99439.56;329089;29;4514;-69
2023/05/05 00:13:05;;;;;;;7.75;5.07;;;;;;;16.10;63.58;99445.63;328193;29;9599;-70
2023/05/05 00:13:18;;;;;;;7.40;5.03;;;;;;;16.11;63.65;99442.06;330236;29;4545;-69
2023/05/05 00:13:30;;;;;;;7.05;5.00;;;;;;;16.12;63.50;99449.00;329779;29;18364;-71
2023/05/05 00:13:43;;;;;;;6.38;5.10;;;;;;;16.11;63.53;99441.22;332159;29;4567;-69
2023/05/05 00:13:55;;;;;;;6.05;4.90;;;;;;;16.12;63.24;99442.94;330986;29;10627;-71
2023/05/05 00:14:07;;;;;;;6.50;5.05;;;;;;;16.09;63.47;99443.09;330340;29;17645;-69
2023/05/05 00:14:19;;;;;;;7.35;5.28;;;;;;;16.08;63.41;99441.41;333534;29;5282;-69
2023/05/05 00:14:31;;;;;;;8.10;5.50;;;;;;;16.08;63.64;99446.66;331413;29;9249;-71
2023/05/05 00:14:43;;;;;;;8.68;5.53;;;;;;;16.09;63.00;99443.94;332566;29;5405;-69
2023/05/05 00:14:55;;;;;;;9.30;5.75;;;;;;;16.11;63.20;99447.31;330970;29;9402;-71
2023/05/05 00:15:08;;;;;;;9.70;5.78;;;;;;;16.12;63.12;99443.75;333609;29;4669;-69
2023/05/05 00:15:19;;;;;;;9.25;5.80;;;;;;;16.13;63.06;99439.34;333450;29;4517;-69
2023/05/05 00:15:31;;;;;;;9.20;5.63;;;;;;;16.11;62.99;99446.47;330471;29;18997;-69
2023/05/05 00:15:46;;;;;;;7.00;5.45;;;;;;;16.11;62.88;99447.31;332248;29;7040;-69
2023/05/05 00:15:58;;;;;;;6.93;5.40;;;;;;;16.12;62.76;99448.16;331462;29;17872;-69
2023/05/05 00:16:10;;;;;;;6.43;5.35;;;;;;;16.10;62.54;99439.56;332649;29;5085;-71
2023/05/05 00:16:22;;;;;;;6.45;5.65;;;;;;;16.10;62.72;99444.78;334172;29;4514;-69
2023/05/05 00:16:34;;;;;;;6.43;5.63;;;;;;;16.08;62.74;99447.50;332954;29;4681;-68
2023/05/05 00:16:46;;;;;;;7.53;5.78;;;;;;;16.06;62.80;99443.28;330540;29;18553;-69
2023/05/05 00:16:58;;;;;;;7.78;6.00;;;;;;;16.08;62.59;99446.66;333093;29;4526;-69
2023/05/05 00:17:10;;;;;;;7.05;5.90;;;;;;;16.08;62.80;99444.03;330131;29;10791;-71
2023/05/05 00:17:22;;;;;;;6.35;5.45;;;;;;;16.08;62.90;99446.66;333727;29;5261;-69
2023/05/05 00:17:34;;;;;;;6.15;5.38;;;;;;;16.09;62.76;99437.84;332575;29;5285;-70
2023/05/05 00:17:51;;;;;;;7.00;5.80;;;;;;;16.09;62.85;99443.94;331216;29;17989;-69
2023/05/05 00:18:04;;;;;;;7.05;5.93;;;;;;;16.10;63.07;99442.16;331978;29;18759;-72
2023/05/05 00:18:17;;;;;;;7.30;5.55;;;;;;;16.13;62.54;99441.97;330631;29;18195;-71
2023/05/05 00:18:29;;;;;;;7.90;5.40;;;;;;;16.11;62.89;99441.22;333663;29;4674;-72
2023/05/05 00:18:41;;;;;;;8.98;5.55;;;;;;;16.11;63.20;99451.72;332324;29;4638;-73
2023/05/05 00:18:53;;;;;;;8.80;5.75;;;;;;;16.09;63.34;99443.09;333043;29;5325;-72
2023/05/05 00:19:05;;;;;;;8.88;5.50;;;;;;;16.10;63.08;99447.41;332352;29;9877;-73
2023/05/05 00:19:17;;;;;;;9.38;5.10;;;;;;;16.11;62.99;99438.59;330392;29;17512;-72
2023/05/05 00:19:29;;;;;;;8.65;4.90;;;;;;;16.12;62.98;99449.00;332117;29;4522;-72
2023/05/05 00:19:41;;;;;;;7.72;4.78;;;;;;;16.12;63.19;99442.94;330070;29;5593;-73
2023/05/05 00:19:53;;;;;;;7.57;5.18;;;;;;;16.13;62.80;99436.72;331858;29;4595;-72
2023/05/05 00:20:07;;;;;;;7.25;5.43;;;;;;;16.14;62.99;99446.31;329972;29;10256;-72
2023/05/05 00:20:20;;;;;;;6.30;5.50;;;;;;;16.12;62.94;99440.31;332471;29;7201;-71
2023/05/05 00:20:31;;;;;;;6.28;5.40;;;;;;;16.15;62.96;99445.34;330778;29;18126;-72
2023/05/05 00:20:46;;;;;;;6.93;5.40;;;;;;;16.10;63.20;99444.78;334911;29;4565;-69
2023/05/05 00:20:58;;;;;;;7.32;5.55;;;;;;;16.11;62.77;99443.84;331960;29;18065;-69
2023/05/05 00:21:10;;;;;;;6.68;5.30;;;;;;;16.11;63.20;99442.06;334780;29;4669;-69
2023/05/05 00:21:22;;;;;;;6.47;5.18;;;;;;;16.12;63.17;99443.75;330540;29;16680;-69
2023/05/05 00:21:34;;;;;;;6.18;5.22;;;;;;;16.14;63.19;99446.31;334612;29;4995;-69
2023/05/05 00:21:46;;;;;;;8.93;5.38;;;;;;;16.15;63.20;99442.72;330068;29;17696;-69
2023/05/05 00:21:58;;;;;;;9.40;5.43;;;;;;;16.15;63.21;99446.19;333212;29;5300;-69
2023/05/05 00:22:10;;;;;;;6.82;5.18;;;;;;;16.15;63.28;99438.31;326209;29;5779;-71
2023/05/05 00:22:22;;;;;;;6.28;5.10;;;;;;;16.15;62.87;99447.97;332314;29;5249;-69
2023/05/05 00:22:35;;;;;;;7.20;5.25;;;;;;;16.14;62.73;99447.13;332726;29;4783;-69
2023/05/05 00:22:47;;;;;;;6.93;5.15;;;;;;;16.14;62.66;99452.38;330682;29;17881;-69
2023/05/05 00:22:59;;;;;;;6.47;4.90;;;;;;;16.14;62.44;99446.31;331952;29;4914;-69
2023/05/05 00:23:12;;;;;;;7.32;4.78;;;;;;;16.13;62.24;99450.69;327655;29;17919;-69
2023/05/05 00:23:24;;;;;;;7.18;4.80;;;;;;;16.10;62.20;99450.88;332216;29;5558;-69
2023/05/05 00:23:36;;;;;;;6.57;4.82;;;;;;;16.11;62.29;99447.31;327941;29;19091;-69
2023/05/05 00:23:48;;;;;;;6.85;5.03;;;;;;;16.10;62.42;99450.88;332118;29;4908;-69
2023/05/05 00:24:00;;;;;;;6.82;4.90;;;;;;;16.08;62.29;99451.91;327786;29;9805;-70
2023/05/05 00:24:12;;;;;;;6.60;5.03;;;;;;;16.08;62.90;99446.66;332758;29;5432;-69
2023/05/05 00:24:25;;;;;;;7.05;4.95;;;;;;;16.07;62.53;99444.97;332090;29;5239;-69
2023/05/05 00:24:37;;;;;;;6.05;4.60;;;;;;;16.08;62.50;99439.63;328946;29;17896;-69
2023/05/05 00:24:49;;;;;;;6.38;4.72;;;;;;;16.08;62.46;99449.28;331287;29;5425;-69
2023/05/05 00:25:01;;;;;;;7.30;4.80;;;;;;;16.08;62.46;99446.66;330419;29;17786;-71
2023/05/05 00:25:13;;;;;;;7.03;4.65;;;;;;;16.08;62.48;99449.28;331495;29;4898;-70
2023/05/05 00:25:25;;;;;;;5.70;4.47;;;;;;;16.09;62.70;99443.09;329567;29;5790;-71
2023/05/05 00:25:37;;;;;;;5.57;4.57;;;;;;;16.09;62.82;99445.72;328681;29;18247;-72
2023/05/05 00:25:49;;;;;;;5.88;4.63;;;;;;;16.09;62.72;99449.16;329866;29;4660;-72
2023/05/05 00:26:02;;;;;;;6.40;4.70;;;;;;;16.08;62.81;99449.28;329186;29;18208;-72
2023/05/05 00:26:14;;;;;;;7.30;4.70;;;;;;;16.07;62.54;99445.78;330526;29;5556;-71
2023/05/05 00:26:26;;;;;;;7.60;4.57;;;;;;;16.07;62.52;99450.19;328884;29;18160;-72
2023/05/05 00:26:38;;;;;;;5.68;4.47;;;;;;;16.07;62.45;99447.59;331853;29;4748;-71
2023/05/05 00:26:50;;;;;;;5.32;4.50;;;;;;;16.06;62.52;99448.53;331219;29;5227;-71
2023/05/05 00:27:02;;;;;;;6.80;4.75;;;;;;;16.06;62.19;99451.16;326655;29;17327;-71
2023/05/05 00:27:14;;;;;;;7.45;4.97;;;;;;;16.04;62.15;99450.41;332020;29;4826;-72
2023/05/05 00:27:26;;;;;;;8.32;5.53;;;;;;;16.04;62.17;99450.41;328862;29;17984;-71
2023/05/05 00:27:38;;;;;;;7.15;5.55;;;;;;;16.03;62.11;99448.69;331396;29;4668;-71
2023/05/05 00:27:52;;;;;;;7.85;6.03;;;;;;;16.02;62.22;99453.09;329194;29;18090;-72
2023/05/05 00:28:04;;;;;;;8.32;6.18;;;;;;;16.02;61.98;99452.22;331101;29;4595;-71
2023/05/05 00:28:16;;;;;;;7.32;5.40;;;;;;;16.01;62.10;99453.19;329734;29;19281;-72
2023/05/05 00:28:28;;;;;;;6.63;5.00;;;;;;;16.00;62.08;99448.84;332808;29;4694;-71
2023/05/05 00:28:40;;;;;;;5.40;4.70;;;;;;;15.96;62.13;99446.44;328812;29;10517;-73
2023/05/05 00:28:52;;;;;;;5.25;4.50;;;;;;;15.96;61.81;99451.69;332928;29;5367;-72
2023/05/05 00:29:05;;;;;;;5.47;4.40;;;;;;;15.95;61.96;99449.97;331319;29;4692;-71
2023/05/05 00:29:20;;;;;;;7.80;4.75;;;;;;;15.93;62.21;99449.22;330285;29;17872;-71
2023/05/05 00:29:32;;;;;;;7.47;4.80;;;;;;;15.92;62.11;99449.34;331054;29;19257;-71
2023/05/05 00:29:44;;;;;;;8.50;4.68;;;;;;;15.89;62.17;99447.72;333785;29;4779;-72
2023/05/05 00:29:56;;;;;;;8.13;4.60;;;;;;;15.86;62.46;99457.56;331283;29;18193;-72
2023/05/05 00:30:09;;;;;;;8.20;4.80;;;;;;;15.84;62.43;99454.19;333061;29;4682;-72
2023/05/05 00:30:22;;;;;;;8.32;4.72;;;;;;;15.81;62.63;99449.94;329876;29;8572;-72
2023/05/05 00:30:36;;;;;;;7.10;4.63;;;;;;;15.81;62.60;99449.94;332654;29;4718;-72
2023/05/05 00:30:48;;;;;;;7.78;5.07;;;;;;;15.80;62.57;99452.66;330878;29;17311;-71
2023/05/05 00:31:00;;;;;;;9.02;5.38;;;;;;;15.77;62.79;99448.41;334230;29;4656;-72
2023/05/05 00:31:15;;;;;;;7.78;5.20;;;;;;;15.76;62.60;99457.22;331243;29;17953;-71
2023/05/05 00:31:27;;;;;;;8.25;4.72;;;;;;;15.73;62.91;99455.59;330120;29;17864;-69
2023/05/05 00:31:39;;;;;;;7.18;4.68;;;;;;;15.73;62.65;99452.97;334013;29;5253;-68
2023/05/05 00:31:51;;;;;;;6.38;4.55;;;;;;;15.73;62.51;99455.59;330846;29;18029;-71
2023/05/05 00:32:04;;;;;;;5.20;4.50;;;;;;;15.73;62.72;99454.75;334593;29;5241;-71
2023/05/05 00:32:16;;;;;;;7.53;4.70;;;;;;;15.73;62.90;99462.63;330972;29;18997;-73
2023/05/05 00:32:28;;;;;;;7.40;4.82;;;;;;;15.72;62.86;99453.94;334699;29;5143;-71
2023/05/05 00:32:40;;;;;;;8.43;5.65;;;;;;;15.72;62.99;99455.69;333243;29;4571;-71
2023/05/05 00:32:53;;;;;;;7.45;5.60;;;;;;;15.72;63.11;99455.69;330390;29;18297;-71
2023/05/05 00:33:05;;;;;;;6.30;5.22;;;;;;;15.72;63.25;99456.56;330878;29;9371;-73
2023/05/05 00:33:17;;;;;;;6.88;5.45;;;;;;;15.73;63.02;99452.97;332201;29;18161;-72
2023/05/05 00:33:29;;;;;;;7.55;5.50;;;;;;;15.73;62.98;99454.75;332453;29;5189;-72
2023/05/05 00:33:41;;;;;;;7.47;5.18;;;;;;;15.73;63.03;99454.75;327394;29;18287;-72
2023/05/05 00:33:53;;;;;;;6.55;4.82;;;;;;;15.74;63.15;99459.94;329482;29;4545;-71
2023/05/05 00:34:05;;;;;;;5.70;4.47;;;;;;;15.74;63.19;99459.09;327183;29;5307;-73
2023/05/05 00:34:17;;;;;;;5.63;4.60;;;;;;;15.74;63.03;99454.69;329708;29;5206;-72
2023/05/05 00:34:29;;;;;;;6.00;4.70;;;;;;;15.76;63.15;99451.97;331565;29;5336;-72
2023/05/05 00:34:41;;;;;;;6.30;4.53;;;;;;;15.73;63.26;99450.38;328233;29;18188;-72
2023/05/05 00:34:55;;;;;;;6.88;4.35;;;;;;;15.75;63.28;99450.28;331798;29;5421;-71
2023/05/05 00:35:07;;;;;;;7.75;4.60;;;;;;;15.74;63.22;99451.22;327566;29;19059;-72
2023/05/05 00:35:19;;;;;;;7.68;4.70;;;;;;;15.74;63.11;99453.84;332879;29;5332;-71
2023/05/05 00:35:31;;;;;;;5.28;4.40;;;;;;;15.75;63.25;99455.53;329839;29;18410;-71
2023/05/05 00:35:43;;;;;;;5.20;4.43;;;;;;;15.74;63.08;99453.84;333181;29;5112;-71
2023/05/05 00:35:56;;;;;;;6.00;4.70;;;;;;;15.74;63.27;99453.84;330902;29;9532;-72
2023/05/05 00:36:08;;;;;;;6.90;4.85;;;;;;;15.72;63.49;99453.06;334073;29;4975;-71
2023/05/05 00:36:23;;;;;;;6.82;4.78;;;;;;;15.72;63.45;99453.94;331488;29;6763;-73
2023/05/05 00:36:35;;;;;;;5.78;4.68;;;;;;;15.67;63.88;99453.31;331691;29;18736;-71
2023/05/05 00:36:47;;;;;;;6.78;5.00;;;;;;;15.68;63.53;99459.41;329379;29;18250;-72
2023/05/05 00:36:59;;;;;;;7.05;4.90;;;;;;;15.68;63.53;99454.16;332506;29;4677;-72
2023/05/05 00:37:11;;;;;;;6.22;4.80;;;;;;;15.68;63.61;99459.41;329134;29;18477;-72
2023/05/05 00:37:23;;;;;;;5.60;4.60;;;;;;;15.69;63.74;99458.47;332994;29;5447;-71
2023/05/05 00:37:35;;;;;;;6.00;4.75;;;;;;;15.67;63.69;99448.06;331643;29;5182;-71
2023/05/05 00:37:48;;;;;;;6.70;4.63;;;;;;;15.65;63.61;99459.56;330408;29;18101;-72
2023/05/05 00:38:00;;;;;;;7.00;4.60;;;;;;;15.62;63.67;99457.13;333306;29;4802;-71
2023/05/05 00:38:12;;;;;;;6.53;4.60;;;;;;;15.63;63.71;99450.94;327453;29;18171;-71
2023/05/05 00:38:24;;;;;;;8.23;4.80;;;;;;;15.64;63.75;99455.28;334885;29;4876;-72
2023/05/05 00:38:36;;;;;;;8.18;4.90;;;;;;;15.65;63.80;99454.31;330508;29;19177;-72
2023/05/05 00:38:48;;;;;;;7.75;6.70;;;;;;;15.64;63.83;99453.50;332113;29;4528;-71
2023/05/05 00:39:00;;;;;;;8.70;7.80;;;;;;;15.64;63.58;99448.25;328230;29;9921;-73
2023/05/05 00:39:13;;;;;;;8.82;7.93;;;;;;;15.65;63.64;99452.53;331428;29;19046;-72
2023/05/05 00:39:25;;;;;;;7.05;6.18;;;;;;;15.65;63.69;99449.09;331407;29;4600;-72
2023/05/05 00:39:37;;;;;;;6.97;5.00;;;;;;;15.66;63.58;99450.78;328295;29;19048;-72
2023/05/05 00:39:49;;;;;;;7.70;4.45;;;;;;;15.67;63.84;99452.47;331853;29;5544;-72
2023/05/05 00:40:02;;;;;;;7.97;4.57;;;;;;;15.67;63.82;99449.84;327360;29;19156;-71
2023/05/05 00:40:14;;;;;;;6.78;4.53;;;;;;;15.67;63.88;99447.22;331234;29;5379;-71
2023/05/05 00:40:26;;;;;;;6.35;4.70;;;;;;;15.66;63.95;99450.78;327944;29;17921;-73
2023/05/05 00:40:38;;;;;;;5.80;4.80;;;;;;;15.66;63.75;99450.78;332287;29;4654;-72
2023/05/05 00:40:50;;;;;;;5.65;4.72;;;;;;;15.67;63.85;99449.84;332775;29;4858;-73
2023/05/05 00:41:02;;;;;;;5.60;4.70;;;;;;;15.68;64.04;99454.16;331712;29;18528;-72
2023/05/05 00:41:14;;;;;;;6.20;4.85;;;;;;;15.67;63.96;99445.44;333515;29;5220;-71
2023/05/05 00:41:26;;;;;;;6.28;4.97;;;;;;;15.68;64.08;99448.94;330914;28;18911;-71
2023/05/05 00:41:39;;;;;;;5.97;4.90;;;;;;;15.68;64.07;99448.94;336233;28;4705;-71
2023/05/05 00:41:51;;;;;;;5.90;4.90;;;;;;;15.69;64.08;99445.38;332608;28;18065;-72
2023/05/05 00:42:03;;;;;;;5.97;4.85;;;;;;;15.69;63.99;99445.38;335655;28;5302;-71
2023/05/05 00:42:15;;;;;;;5.40;4.85;;;;;;;15.69;64.02;99453.22;336192;28;4967;-72
2023/05/05 00:42:38;;;;;;;5.32;4.57;;;;;;;15.67;63.84;99441.97;332538;28;17976;-72
2023/05/05 00:42:50;;;;;;;5.43;4.40;;;;;;;15.67;63.90;99447.22;331354;29;17190;-71
2023/05/05 00:43:02;;;;;;;5.65;4.57;;;;;;;15.67;63.86;99439.38;328087;29;18103;-71
2023/05/05 00:43:14;;;;;;;6.13;4.63;;;;;;;15.67;63.99;99445.44;330410;29;4598;-72
2023/05/05 00:43:26;;;;;;;6.45;4.75;;;;;;;15.62;63.83;99444.03;330311;29;18739;-72
2023/05/05 00:43:38;;;;;;;6.20;4.80;;;;;;;15.58;63.93;99449.44;333048;29;4660;-72
2023/05/05 00:43:51;;;;;;;6.57;5.00;;;;;;;15.55;64.09;99444.38;333457;29;4538;-72
2023/05/05 00:44:03;;;;;;;7.40;4.90;;;;;;;15.56;63.92;99439.97;330761;29;18000;-71
2023/05/05 00:44:15;;;;;;;6.63;4.90;;;;;;;15.56;63.92;99453.09;332982;29;4685;-71
2023/05/05 00:44:39;;;;;;;7.50;4.68;;;;;;;15.54;64.47;99453.16;328384;29;17988;-72
2023/05/05 00:44:51;;;;;;;8.80;4.57;;;;;;;15.53;64.58;99446.25;328835;29;17511;-73
2023/05/05 00:45:03;;;;;;;8.23;4.63;;;;;;;15.54;64.48;99444.47;331950;29;5468;-71
2023/05/05 00:45:16;;;;;;;7.35;4.90;;;;;;;15.54;64.17;99447.91;333403;29;5682;-71
2023/05/05 00:45:28;;;;;;;6.70;5.15;;;;;;;15.55;64.22;99444.38;331648;29;17828;-72
2023/05/05 00:45:43;;;;;;;6.38;4.90;;;;;;;15.52;64.16;99449.78;333070;29;10225;-72
2023/05/05 00:46:00;;;;;;;5.88;4.72;;;;;;;15.56;64.22;99446.06;329214;29;16817;-71
2023/05/05 00:46:27;;;;;;;5.20;4.53;;;;;;;15.60;64.20;99449.34;329639;29;17774;-72
2023/05/05 00:46:40;;;;;;;5.70;5.05;;;;;;;15.62;64.05;99449.28;328452;29;17678;-71
2023/05/05 00:46:52;;;;;;;5.90;5.07;;;;;;;15.62;64.02;99447.50;329263;29;17954;-72
2023/05/05 00:47:05;;;;;;;5.93;4.93;;;;;;;15.63;63.75;99443.09;332220;29;4587;-71
2023/05/05 00:47:18;;;;;;;6.40;5.13;;;;;;;15.64;63.91;99447.41;330579;29;18016;-72
2023/05/05 00:47:30;;;;;;;8.57;5.18;;;;;;;15.65;63.73;99441.22;333126;29;5279;-72
2023/05/05 00:47:48;;;;;;;8.23;4.85;;;;;;;15.66;63.96;99448.16;330740;29;17959;-72
2023/05/05 00:48:00;;;;;;;6.63;4.70;;;;;;;15.65;63.89;99443.84;331041;29;18662;-71
2023/05/05 00:48:13;;;;;;;6.78;4.90;;;;;;;15.65;63.86;99441.22;330646;29;19092;-72
2023/05/05 00:48:25;;;;;;;7.13;5.72;;;;;;;15.66;63.76;99445.56;334646;29;4579;-71
2023/05/05 00:48:37;;;;;;;7.40;6.60;;;;;;;15.65;63.99;99443.84;331913;29;18009;-72
2023/05/05 00:48:50;;;;;;;7.82;7.03;;;;;;;15.65;63.82;99446.47;333848;29;4894;-72
2023/05/05 00:49:02;;;;;;;7.43;6.72;;;;;;;15.65;63.71;99443.84;330464;29;18043;-71
2023/05/05 00:49:15;;;;;;;7.95;7.15;;;;;;;15.66;63.61;99453.41;334702;29;4674;-71
2023/05/05 00:49:27;;;;;;;7.70;6.90;;;;;;;15.63;63.83;99446.53;331400;29;17958;-72
2023/05/05 00:49:39;;;;;;;7.10;6.25;;;;;;;15.64;63.69;99455.28;333571;29;4697;-71
2023/05/05 00:49:51;;;;;;;7.15;6.13;;;;;;;15.64;63.83;99452.66;331254;29;17959;-72
2023/05/05 00:50:10;;;;;;;7.53;6.07;;;;;;;15.62;63.90;99450.13;334101;29;4630;-71
2023/05/05 00:50:25;;;;;;;6.82;5.72;;;;;;;15.65;63.83;99449.09;330286;29;17763;-72
2023/05/05 00:50:38;;;;;;;5.85;5.13;;;;;;;15.66;63.87;99451.63;329329;29;18222;-71
2023/05/05 00:50:50;;;;;;;5.45;4.93;;;;;;;15.69;63.82;99451.44;330669;29;4987;-71
2023/05/05 00:51:07;;;;;;;5.60;5.00;;;;;;;15.70;63.89;99449.69;327391;29;18056;-71
2023/05/05 00:51:20;;;;;;;6.55;4.90;;;;;;;15.72;63.75;99450.44;328799;29;17771;-71
2023/05/05 00:51:32;;;;;;;6.07;4.57;;;;;;;15.73;63.87;99452.97;331465;29;17908;-72
2023/05/05 00:51:44;;;;;;;5.28;4.60;;;;;;;15.73;63.79;99452.97;333806;29;4562;-71
2023/05/05 00:51:57;;;;;;;5.38;4.70;;;;;;;15.74;63.76;99448.59;335146;29;4530;-71
2023/05/05 00:52:10;;;;;;;6.10;4.95;;;;;;;15.77;63.85;99448.41;332235;29;18374;-72
2023/05/05 00:52:22;;;;;;;7.03;5.25;;;;;;;15.74;63.01;99448.59;330961;29;10160;-73
2023/05/05 00:52:36;;;;;;;8.52;5.72;;;;;;;15.74;62.93;99449.44;332824;29;4588;-71
2023/05/05 00:52:49;;;;;;;8.55;5.97;;;;;;;15.76;62.82;99449.38;329738;29;4550;-72
2023/05/05 00:53:04;;;;;;;8.45;5.82;;;;;;;15.77;62.93;99453.66;333543;29;5450;-72
2023/05/05 00:53:16;;;;;;;7.57;5.50;;;;;;;15.79;63.15;99451.78;331896;29;17882;-71
2023/05/05 00:53:28;;;;;;;7.32;5.18;;;;;;;15.81;63.29;99451.72;330451;29;18180;-72
2023/05/05 00:53:43;;;;;;;7.63;5.10;;;;;;;15.81;63.19;99452.56;333383;29;4675;-71
2023/05/05 00:53:56;;;;;;;7.65;5.13;;;;;;;15.82;63.05;99451.63;331447;29;17913;-72
2023/05/05 00:54:08;;;;;;;8.15;5.28;;;;;;;15.83;63.08;99453.31;332337;28;17874;-71
2023/05/05 00:54:20;;;;;;;6.63;4.88;;;;;;;15.83;63.20;99458.53;335394;29;5504;-71
2023/05/05 00:54:35;;;;;;;6.22;4.88;;;;;;;15.83;63.13;99455.09;334459;29;5281;-71
2023/05/05 00:54:47;;;;;;;6.40;5.13;;;;;;;15.82;62.86;99446.38;330257;29;17806;-73
2023/05/05 00:54:59;;;;;;;7.15;5.53;;;;;;;15.84;63.29;99448.94;333815;29;18133;-71
2023/05/05 00:55:11;;;;;;;6.68;5.43;;;;;;;15.82;63.15;99449.00;331418;29;5741;-71
2023/05/05 00:55:24;;;;;;;6.68;4.97;;;;;;;15.82;63.33;99442.94;327685;29;18161;-71
2023/05/05 00:55:36;;;;;;;8.10;5.13;;;;;;;15.82;63.19;99456.88;333388;29;4624;-71
2023/05/05 00:55:50;;;;;;;6.57;5.05;;;;;;;15.81;63.38;99455.16;330605;29;18261;-72
2023/05/05 00:56:02;;;;;;;5.97;4.80;;;;;;;15.79;63.53;99451.78;332249;29;4628;-71
2023/05/05 00:56:20;;;;;;;6.60;5.15;;;;;;;15.78;63.16;99450.13;329967;29;18207;-71
2023/05/05 00:56:32;;;;;;;6.80;5.30;;;;;;;15.78;63.57;99450.13;331258;29;17746;-73
2023/05/05 00:56:44;;;;;;;7.15;4.93;;;;;;;15.78;63.48;99460.59;333090;29;5302;-71
2023/05/05 00:56:56;;;;;;;6.88;5.07;;;;;;;15.76;63.53;99446.75;333242;29;5207;-71
2023/05/05 00:57:12;;;;;;;6.72;5.10;;;;;;;15.75;63.79;99448.53;330601;29;19090;-71
2023/05/05 00:57:25;;;;;;;7.32;5.15;;;;;;;15.75;63.57;99451.16;332078;29;17015;-71
2023/05/05 00:57:36;;;;;;;7.32;5.30;;;;;;;15.74;63.79;99448.59;335441;29;5415;-71
2023/05/05 00:57:49;;;;;;;7.32;5.20;;;;;;;15.74;63.77;99448.59;332735;29;18955;-71
2023/05/05 00:58:02;;;;;;;7.32;4.97;;;;;;;15.74;63.47;99448.59;335235;29;5228;-71
2023/05/05 00:58:15;;;;;;;8.43;5.15;;;;;;;15.73;63.47;99452.16;330708;29;18001;-71
2023/05/05 00:58:29;;;;;;;8.27;5.47;;;;;;;15.71;63.57;99448.75;333378;29;5254;-71
2023/05/05 00:58:42;;;;;;;6.93;5.53;;;;;;;15.71;63.84;99448.75;331956;29;18157;-72
2023/05/05 00:58:55;;;;;;;6.03;5.10;;;;;;;15.70;63.84;99453.13;329844;29;18763;-71
2023/05/05 00:59:07;;;;;;;6.57;4.95;;;;;;;15.69;63.73;99445.38;332862;29;4587;-71
2023/05/05 00:59:22;;;;;;;6.95;5.00;;;;;;;15.71;63.91;99448.75;330504;29;19321;-71
2023/05/05 00:59:35;;;;;;;6.30;5.07;;;;;;;15.66;63.95;99437.69;329127;29;18065;-71
2023/05/05 00:59:49;;;;;;;6.88;5.20;;;;;;;15.67;63.80;99441.97;329349;29;7530;-73
2023/05/05 01:00:01;;;;;;;6.75;5.20;;;;;;;15.65;63.80;99443.84;331691;29;4727;-71
2023/05/05 01:00:14;;;;;;;6.47;4.85;;;;;;;15.65;63.65;99449.09;329354;29;18255;-72
2023/05/05 01:00:27;;;;;;;6.63;4.75;;;;;;;15.62;63.63;99442.25;331013;29;5463;-71
2023/05/05 01:00:39;;;;;;;7.00;4.70;;;;;;;15.62;63.85;99444.88;328946;29;17884;-71
2023/05/05 01:00:51;;;;;;;7.50;5.28;;;;;;;15.61;63.91;99439.72;331406;29;5715;-71